Time;durP1;ratioP1;P1;durP2;ratioP2;P2;SDS_P1;SDS_P2;PMS_P1;PMS_P2;Temp;Humidity;BMP_temperature;BMP_pressure;BME280_temperature;BME280_humidity;BME280_pressure;Samples;Min_cycle;Max_cycle;Signal;HPM_P1;HPM_P2
2022/08/01 00:00:13;;;;;;;3.07;2.87;;;21.00;91.40;;;;;;5029878;28;20178;-67
2022/08/01 00:02:39;;;;;;;3.05;2.47;;;21.00;91.60;;;;;;5032867;28;20894;-68
2022/08/01 00:05:07;;;;;;;2.85;2.60;;;20.90;91.60;;;;;;5033362;28;20182;-69
2022/08/01 00:07:34;;;;;;;2.55;2.42;;;20.90;91.60;;;;;;5031259;28;20218;-67
2022/08/01 00:10:00;;;;;;;2.60;2.40;;;20.90;91.70;;;;;;5021851;28;20189;-68
2022/08/01 00:12:25;;;;;;;2.93;2.63;;;20.90;91.90;;;;;;5032741;28;20562;-68
2022/08/01 00:14:51;;;;;;;2.97;2.77;;;20.80;91.90;;;;;;5032083;28;20429;-67
2022/08/01 00:17:16;;;;;;;2.93;2.63;;;20.80;91.80;;;;;;5031331;28;20627;-67
2022/08/01 00:19:42;;;;;;;2.83;2.63;;;20.80;91.90;;;;;;5030754;28;20186;-68
2022/08/01 00:22:08;;;;;;;3.13;2.63;;;20.80;91.90;;;;;;5031036;28;20194;-66
2022/08/01 00:24:33;;;;;;;2.70;2.50;;;20.80;92.40;;;;;;5033007;28;20240;-68
2022/08/01 00:26:59;;;;;;;2.83;2.63;;;20.70;92.20;;;;;;5029463;28;20245;-67
2022/08/01 00:29:24;;;;;;;2.80;2.60;;;20.70;92.30;;;;;;5026769;28;20188;-69
2022/08/01 00:31:50;;;;;;;3.73;2.80;;;20.70;92.30;;;;;;5032704;28;20186;-67
2022/08/01 00:34:15;;;;;;;2.80;2.60;;;20.70;92.50;;;;;;5033175;28;20182;-67
2022/08/01 00:36:41;;;;;;;2.33;2.20;;;20.70;92.50;;;;;;5020160;28;20190;-68
2022/08/01 00:39:07;;;;;;;2.80;2.60;;;20.60;92.50;;;;;;5031186;28;20587;-67
2022/08/01 00:41:32;;;;;;;2.50;2.30;;;20.70;92.50;;;;;;5031857;28;20209;-68
2022/08/01 00:43:58;;;;;;;2.73;2.40;;;20.60;92.50;;;;;;5020074;28;20277;-68
2022/08/01 00:46:23;;;;;;;3.17;2.80;;;20.70;92.50;;;;;;5030839;28;20178;-68
2022/08/01 00:48:49;;;;;;;4.10;2.90;;;20.70;92.40;;;;;;5032951;28;20221;-67
2022/08/01 00:51:17;;;;;;;3.30;3.10;;;20.60;92.60;;;;;;5030598;28;20185;-67
2022/08/01 00:53:42;;;;;;;3.60;2.95;;;20.60;93.00;;;;;;5033087;28;20213;-68
2022/08/01 00:56:08;;;;;;;2.60;2.40;;;20.60;92.90;;;;;;5019686;28;20561;-69
2022/08/01 00:58:34;;;;;;;2.90;2.70;;;20.60;92.80;;;;;;5029023;28;20591;-68
2022/08/01 01:01:00;;;;;;;2.83;2.63;;;20.60;92.80;;;;;;5030113;28;20186;-67
2022/08/01 01:03:26;;;;;;;3.17;2.90;;;20.60;92.80;;;;;;5032756;28;20186;-68
2022/08/01 01:06:07;;;;;;;2.90;2.70;;;20.60;92.80;;;;;;5029650;28;20448;-67
2022/08/01 01:08:40;;;;;;;3.10;2.90;;;20.50;92.90;;;;;;5026863;28;20216;-69
2022/08/01 01:11:14;;;;;;;3.30;3.00;;;20.50;93.50;;;;;;5031795;28;20186;-67
2022/08/01 01:14:26;;;;;;;2.70;2.50;;;20.50;93.30;;;;;;5032744;28;20197;-68
2022/08/01 01:16:53;;;;;;;2.53;2.33;;;20.50;93.30;;;;;;5010919;28;20237;-68
2022/08/01 01:19:26;;;;;;;3.05;2.55;;;20.50;93.50;;;;;;5030984;28;20297;-68
2022/08/01 01:22:24;;;;;;;3.20;3.00;;;20.40;93.30;;;;;;5021948;28;20278;-68
2022/08/01 01:25:12;;;;;;;3.20;2.75;;;20.30;93.30;;;;;;5014829;28;20201;-68
2022/08/01 01:28:11;;;;;;;2.80;2.60;;;20.40;93.50;;;;;;5030176;28;20297;-67
2022/08/01 01:30:40;;;;;;;2.83;2.63;;;20.50;93.60;;;;;;5029473;28;20277;-67
2022/08/01 01:33:10;;;;;;;3.03;2.80;;;20.50;93.60;;;;;;5032181;28;20252;-69
2022/08/01 01:35:38;;;;;;;3.30;2.85;;;20.40;93.90;;;;;;5029619;28;20236;-68
2022/08/01 01:38:34;;;;;;;3.45;3.00;;;20.40;93.70;;;;;;5023717;28;20221;-68
2022/08/01 01:41:02;;;;;;;3.10;2.90;;;20.50;93.70;;;;;;5024321;28;20198;-68
2022/08/01 01:43:29;;;;;;;3.10;2.90;;;20.50;93.50;;;;;;5032063;28;20208;-68
2022/08/01 01:45:55;;;;;;;3.08;2.80;;;20.20;93.30;;;;;;5024354;28;20224;-68
2022/08/01 01:48:23;;;;;;;3.35;3.05;;;20.50;93.50;;;;;;5029431;28;20766;-69
2022/08/01 01:50:51;;;;;;;3.55;3.25;;;20.50;93.60;;;;;;5025190;28;20199;-69
2022/08/01 01:53:20;;;;;;;3.38;3.08;;;20.30;93.70;;;;;;5029181;28;20178;-68
2022/08/01 01:55:49;;;;;;;2.95;2.75;;;20.30;93.60;;;;;;5031181;28;20186;-69
2022/08/01 01:58:15;;;;;;;2.90;2.70;;;20.40;94.10;;;;;;5030193;28;20623;-68
2022/08/01 02:00:44;;;;;;;2.92;2.72;;;20.60;94.00;;;;;;5019866;28;20946;-68
2022/08/01 02:03:12;;;;;;;3.58;3.28;;;20.30;94.10;;;;;;5026820;28;20193;-68
2022/08/01 02:05:38;;;;;;;4.70;3.00;;;20.30;94.10;;;;;;5019573;28;20185;-67
2022/08/01 02:08:05;;;;;;;3.22;2.90;;;20.30;94.00;;;;;;5028150;28;20880;-68
2022/08/01 02:10:32;;;;;;;3.65;3.30;;;20.30;94.10;;;;;;5031400;28;20288;-68
2022/08/01 02:13:01;;;;;;;3.10;2.88;;;20.20;94.20;;;;;;5031499;28;20186;-67
2022/08/01 02:15:28;;;;;;;3.80;3.25;;;20.30;94.20;;;;;;5028752;28;20190;-69
2022/08/01 02:17:55;;;;;;;3.42;3.20;;;20.30;94.30;;;;;;5030328;28;20217;-68
2022/08/01 02:20:21;;;;;;;3.40;3.17;;;20.30;94.40;;;;;;5029488;28;20201;-68
2022/08/01 02:22:52;;;;;;;3.78;3.47;;;20.30;94.30;;;;;;5028460;28;20205;-67
2022/08/01 02:25:26;;;;;;;3.50;3.20;;;20.30;94.40;;;;;;5030914;28;20664;-67
2022/08/01 02:28:12;;;;;;;3.40;3.10;;;20.20;94.60;;;;;;5030304;28;20651;-67
2022/08/01 02:30:42;;;;;;;3.20;3.00;;;20.30;94.60;;;;;;5029538;28;20272;-67
2022/08/01 02:33:27;;;;;;;3.05;2.85;;;20.30;94.60;;;;;;5024720;28;20182;-67
2022/08/01 02:35:57;;;;;;;3.55;3.25;;;20.20;95.70;;;;;;5025771;28;20191;-67
2022/08/01 02:38:27;;;;;;;3.10;2.90;;;20.10;95.60;;;;;;5028568;28;20525;-67
2022/08/01 02:40:57;;;;;;;3.40;3.10;;;20.20;95.20;;;;;;5029023;28;20186;-67
2022/08/01 02:43:26;;;;;;;3.80;3.22;;;20.20;95.10;;;;;;5024491;28;20211;-67
2022/08/01 02:45:54;;;;;;;3.30;3.00;;;20.20;95.10;;;;;;5021378;28;20187;-67
2022/08/01 02:48:23;;;;;;;5.18;3.50;;;20.20;95.50;;;;;;5026895;28;20210;-67
2022/08/01 02:50:50;;;;;;;3.42;3.22;;;20.30;95.40;;;;;;5026544;28;20218;-67
2022/08/01 02:53:20;;;;;;;3.60;3.40;;;20.30;95.30;;;;;;5024892;28;20182;-66
2022/08/01 02:55:47;;;;;;;3.30;3.00;;;20.20;95.50;;;;;;5030427;28;20263;-67
2022/08/01 02:58:16;;;;;;;3.60;3.30;;;20.30;95.80;;;;;;5029073;28;20206;-67
2022/08/01 03:00:43;;;;;;;3.50;3.20;;;20.20;95.70;;;;;;5019596;28;20634;-67
2022/08/01 03:03:10;;;;;;;3.85;3.22;;;20.20;96.00;;;;;;5029909;28;20285;-67
2022/08/01 03:05:39;;;;;;;3.30;3.10;;;20.20;95.90;;;;;;5027186;28;20190;-67
2022/08/01 03:08:07;;;;;;;3.63;3.30;;;20.10;95.70;;;;;;5024120;28;20214;-67
2022/08/01 03:10:35;;;;;;;3.03;2.80;;;20.10;95.90;;;;;;5030636;28;20217;-67
2022/08/01 03:13:04;;;;;;;4.25;3.60;;;20.00;96.10;;;;;;5028599;28;20185;-67
2022/08/01 03:15:33;;;;;;;3.08;2.88;;;20.00;96.20;;;;;;5022051;28;20186;-67
2022/08/01 03:18:00;;;;;;;3.33;3.03;;;19.90;96.40;;;;;;5029072;28;20705;-67
2022/08/01 03:20:27;;;;;;;3.70;3.10;;;19.90;96.80;;;;;;5027778;28;20190;-67
2022/08/01 03:22:53;;;;;;;3.28;2.97;;;19.90;97.30;;;;;;5043671;28;20182;-67
2022/08/01 03:25:20;;;;;;;3.25;3.05;;;19.90;97.10;;;;;;5037032;28;20189;-67
2022/08/01 03:27:53;;;;;;;4.05;3.75;;;19.80;97.20;;;;;;5029624;28;20205;-67
2022/08/01 03:30:22;;;;;;;3.78;3.40;;;19.90;97.30;;;;;;5019489;28;20197;-67
2022/08/01 03:32:47;;;;;;;2.80;2.60;;;19.90;97.50;;;;;;5029787;28;21608;-67
2022/08/01 03:35:13;;;;;;;3.40;3.20;;;19.90;97.70;;;;;;5028531;28;20182;-67
2022/08/01 03:37:45;;;;;;;3.80;3.13;;;19.90;97.90;;;;;;5026330;28;20210;-67
2022/08/01 03:40:19;;;;;;;3.40;3.20;;;19.90;97.80;;;;;;5019074;28;20261;-67
2022/08/01 03:42:48;;;;;;;3.17;2.80;;;19.90;97.80;;;;;;5029382;28;20232;-67
2022/08/01 03:45:27;;;;;;;3.47;3.17;;;19.80;97.90;;;;;;5021422;28;20190;-67
2022/08/01 03:47:59;;;;;;;4.05;3.75;;;19.80;98.00;;;;;;5029814;28;20757;-67
2022/08/01 03:50:26;;;;;;;3.13;2.90;;;19.80;98.20;;;;;;5028787;28;20189;-67
2022/08/01 03:52:54;;;;;;;3.20;2.90;;;19.70;98.20;;;;;;5028041;28;20205;-67
2022/08/01 03:55:21;;;;;;;3.25;3.00;;;19.70;98.50;;;;;;5029915;28;20178;-67
2022/08/01 03:57:48;;;;;;;3.40;3.20;;;19.70;98.70;;;;;;5028640;28;20561;-67
2022/08/01 04:00:18;;;;;;;2.85;2.55;;;19.70;98.60;;;;;;5025133;28;20182;-67
2022/08/01 04:02:47;;;;;;;3.10;2.90;;;19.70;98.70;;;;;;5028459;28;20225;-67
2022/08/01 04:05:13;;;;;;;3.30;3.05;;;19.80;98.70;;;;;;5028314;28;20182;-67
2022/08/01 04:07:39;;;;;;;3.35;3.05;;;19.80;98.60;;;;;;5027784;28;20305;-67
2022/08/01 04:10:06;;;;;;;3.40;3.10;;;19.90;98.60;;;;;;5024275;28;20262;-67
2022/08/01 04:12:32;;;;;;;3.35;3.05;;;19.90;98.70;;;;;;5027994;28;20237;-67
2022/08/01 04:14:58;;;;;;;3.50;3.20;;;19.90;98.80;;;;;;5032241;28;20186;-67
2022/08/01 04:17:24;;;;;;;2.87;2.67;;;20.00;98.70;;;;;;5030873;28;20210;-67
2022/08/01 04:19:50;;;;;;;2.90;2.70;;;20.00;98.60;;;;;;5029967;28;20453;-67
2022/08/01 04:22:16;;;;;;;2.93;2.73;;;20.00;98.70;;;;;;5028487;28;20182;-67
2022/08/01 04:24:48;;;;;;;4.13;3.10;;;20.10;98.60;;;;;;5035857;28;20454;-67
2022/08/01 04:27:25;;;;;;;2.90;2.70;;;20.10;98.50;;;;;;5032536;28;20210;-67
2022/08/01 04:29:55;;;;;;;2.88;2.67;;;20.20;98.60;;;;;;5030654;28;20178;-67
2022/08/01 04:32:22;;;;;;;3.65;3.35;;;20.20;98.50;;;;;;5032779;28;20182;-67
2022/08/01 04:34:49;;;;;;;3.50;3.20;;;20.20;98.80;;;;;;5030232;28;20570;-67
2022/08/01 04:37:18;;;;;;;3.75;3.33;;;20.20;98.90;;;;;;5029331;28;20687;-68
2022/08/01 04:39:45;;;;;;;4.20;3.50;;;20.20;99.00;;;;;;5029298;28;20182;-62
2022/08/01 04:42:12;;;;;;;3.20;3.00;;;20.20;98.80;;;;;;5029026;28;20215;-62
2022/08/01 04:44:38;;;;;;;3.30;3.00;;;20.30;98.80;;;;;;5028198;28;20305;-61
2022/08/01 04:47:05;;;;;;;4.00;3.10;;;20.30;98.80;;;;;;5032093;28;20214;-62
2022/08/01 04:49:37;;;;;;;3.90;3.58;;;20.30;98.90;;;;;;5032105;28;20647;-61
2022/08/01 04:52:05;;;;;;;3.90;3.60;;;20.30;99.00;;;;;;5031442;28;20277;-61
2022/08/01 04:54:33;;;;;;;3.58;3.28;;;20.30;99.00;;;;;;5031285;28;20202;-62
2022/08/01 04:57:00;;;;;;;3.80;3.40;;;20.50;99.10;;;;;;5030381;28;20210;-61
2022/08/01 04:59:42;;;;;;;3.10;2.90;;;20.50;99.10;;;;;;5032215;28;20530;-62
2022/08/01 05:02:12;;;;;;;3.92;3.20;;;20.50;99.10;;;;;;5029288;28;20712;-62
2022/08/01 05:04:39;;;;;;;3.47;3.17;;;20.60;99.10;;;;;;5031863;28;20273;-61
2022/08/01 05:07:06;;;;;;;3.88;3.58;;;20.70;99.10;;;;;;5030133;28;20714;-62
2022/08/01 05:09:32;;;;;;;4.97;3.70;;;20.80;99.30;;;;;;5033953;28;20663;-62
2022/08/01 05:11:59;;;;;;;3.42;3.13;;;20.80;98.80;;;;;;5030007;28;20186;-62
2022/08/01 05:14:25;;;;;;;3.80;3.50;;;20.90;98.90;;;;;;5033881;28;20191;-59
2022/08/01 05:16:51;;;;;;;4.18;3.25;;;20.90;98.70;;;;;;5024840;28;20203;-61
2022/08/01 05:19:17;;;;;;;4.07;3.45;;;21.00;98.50;;;;;;5025226;28;20745;-64
2022/08/01 05:21:43;;;;;;;4.13;3.20;;;21.10;98.40;;;;;;5025344;28;20281;-64
2022/08/01 05:24:08;;;;;;;3.60;3.23;;;21.30;98.10;;;;;;5030732;28;20190;-65
2022/08/01 05:26:34;;;;;;;3.70;3.23;;;21.50;97.80;;;;;;5029046;28;20187;-64
2022/08/01 05:29:00;;;;;;;3.87;3.57;;;21.70;97.40;;;;;;5030550;28;20554;-64
2022/08/01 05:31:25;;;;;;;3.60;3.30;;;21.80;97.10;;;;;;5029842;28;20192;-63
2022/08/01 05:33:51;;;;;;;4.13;3.17;;;21.90;97.10;;;;;;5029463;28;20190;-63
2022/08/01 05:36:16;;;;;;;3.17;2.87;;;21.90;97.00;;;;;;5023698;28;20292;-64
2022/08/01 05:38:42;;;;;;;3.50;3.30;;;21.90;97.10;;;;;;5028823;28;20248;-63
2022/08/01 05:41:08;;;;;;;3.40;2.70;;;22.00;97.30;;;;;;5029837;28;20178;-63
2022/08/01 05:43:33;;;;;;;3.67;3.00;;;21.90;97.20;;;;;;5029017;28;20593;-62
2022/08/01 05:45:59;;;;;;;2.67;2.47;;;22.20;97.10;;;;;;5025818;28;20194;-64
2022/08/01 05:48:24;;;;;;;3.30;3.00;;;22.20;97.20;;;;;;5027645;28;20715;-64
2022/08/01 05:50:50;;;;;;;3.67;3.37;;;22.30;97.10;;;;;;5026911;28;20274;-64
2022/08/01 05:53:16;;;;;;;3.83;2.70;;;22.40;97.10;;;;;;5026820;28;20555;-65
2022/08/01 05:55:42;;;;;;;2.83;2.63;;;22.40;97.00;;;;;;5022995;28;20479;-62
2022/08/01 05:58:07;;;;;;;2.50;2.30;;;22.60;97.00;;;;;;5024812;28;20580;-62
2022/08/01 06:00:33;;;;;;;2.60;2.40;;;22.80;96.80;;;;;;5028186;28;20179;-65
2022/08/01 06:02:58;;;;;;;3.00;2.80;;;22.90;96.40;;;;;;5027645;28;20758;-66
2022/08/01 06:05:24;;;;;;;3.13;2.90;;;23.10;96.10;;;;;;5025546;28;20199;-66
2022/08/01 06:07:50;;;;;;;3.00;2.70;;;22.90;95.80;;;;;;5025669;28;20240;-63
2022/08/01 06:10:15;;;;;;;3.10;2.90;;;23.30;95.60;;;;;;5026046;28;20181;-64
2022/08/01 06:12:41;;;;;;;3.53;2.03;;;23.40;95.50;;;;;;5019953;28;20244;-66
2022/08/01 06:15:07;;;;;;;2.97;2.33;;;23.40;95.40;;;;;;5029560;28;20170;-68
2022/08/01 06:17:33;;;;;;;2.90;2.33;;;23.50;95.40;;;;;;5028699;28;20206;-67
2022/08/01 06:19:59;;;;;;;4.33;2.77;;;23.70;95.20;;;;;;5029470;28;20464;-66
2022/08/01 06:22:25;;;;;;;2.07;1.97;;;23.80;95.00;;;;;;5026613;28;20448;-68
2022/08/01 06:24:50;;;;;;;2.17;2.07;;;23.90;94.80;;;;;;5029061;28;21292;-66
2022/08/01 06:27:16;;;;;;;1.90;1.80;;;23.40;94.50;;;;;;5026167;28;20701;-66
2022/08/01 06:29:42;;;;;;;1.80;1.70;;;24.00;94.70;;;;;;5021801;28;20671;-68
2022/08/01 06:32:09;;;;;;;2.00;1.90;;;24.10;94.50;;;;;;5029707;28;20193;-67
2022/08/01 06:34:35;;;;;;;2.60;2.07;;;24.20;94.40;;;;;;5030751;28;20421;-66
2022/08/01 06:37:00;;;;;;;2.37;1.97;;;24.30;94.30;;;;;;5028579;28;20474;-67
2022/08/01 06:39:26;;;;;;;2.10;1.90;;;24.30;94.30;;;;;;5034521;28;20440;-67
2022/08/01 06:41:52;;;;;;;2.63;2.30;;;24.40;94.30;;;;;;5026638;28;20174;-70
2022/08/01 06:44:17;;;;;;;2.20;2.00;;;24.40;94.20;;;;;;5023930;28;20178;-69
2022/08/01 06:46:43;;;;;;;2.53;2.33;;;24.50;93.90;;;;;;5026264;28;20178;-74
2022/08/01 06:49:08;;;;;;;2.07;1.87;;;24.60;93.80;;;;;;5019090;28;20206;-71
2022/08/01 06:51:34;;;;;;;2.20;2.00;;;24.50;93.60;;;;;;5032583;28;20189;-71
2022/08/01 06:53:59;;;;;;;2.37;2.27;;;24.60;93.60;;;;;;5030718;28;20240;-69
2022/08/01 06:56:25;;;;;;;2.40;2.20;;;24.60;93.40;;;;;;5029548;28;20277;-71
2022/08/01 06:58:51;;;;;;;2.77;2.57;;;24.70;93.40;;;;;;5029737;28;20213;-72
2022/08/01 07:01:16;;;;;;;2.70;2.30;;;24.20;92.80;;;;;;5028493;28;20686;-72
2022/08/01 07:03:42;;;;;;;1.90;1.67;;;24.70;92.90;;;;;;5017533;28;20196;-66
2022/08/01 07:06:07;;;;;;;2.13;1.80;;;25.00;93.10;;;;;;5029158;28;20221;-66
2022/08/01 07:08:33;;;;;;;1.90;1.80;;;25.30;92.30;;;;;;5029004;28;20220;-66
2022/08/01 07:10:59;;;;;;;2.13;1.80;;;25.80;91.50;;;;;;5028295;28;20190;-67
2022/08/01 07:13:30;;;;;;;2.40;1.43;;;27.50;88.60;;;;;;5028923;28;20189;-67
2022/08/01 07:15:56;;;;;;;4.70;2.80;;;30.40;78.80;;;;;;5026999;28;20449;-69
2022/08/01 07:18:22;;;;;;;2.60;2.40;;;33.20;67.90;;;;;;5028969;28;20456;-68
2022/08/01 07:20:49;;;;;;;1.53;1.40;;;35.40;59.30;;;;;;5029946;28;20441;-71
2022/08/01 07:23:15;;;;;;;2.17;1.90;;;35.40;56.10;;;;;;5027308;28;20440;-68
2022/08/01 07:25:41;;;;;;;2.00;1.80;;;34.50;55.10;;;;;;5026917;28;21038;-68
2022/08/01 07:28:07;;;;;;;2.07;1.97;;;34.20;55.80;;;;;;5029327;28;20469;-70
2022/08/01 07:30:32;;;;;;;2.27;2.07;;;33.50;56.60;;;;;;5027764;28;20450;-77
2022/08/01 07:32:58;;;;;;;2.07;1.77;;;33.50;57.00;;;;;;5026853;28;20990;-72
2022/08/01 07:35:24;;;;;;;3.70;1.70;;;35.00;54.70;;;;;;5027407;28;20269;-72
2022/08/01 07:37:49;;;;;;;2.03;1.87;;;35.60;52.70;;;;;;5026946;28;20202;-72
2022/08/01 07:40:16;;;;;;;2.20;2.00;;;35.40;52.40;;;;;;5027932;28;20316;-74
2022/08/01 07:42:43;;;;;;;2.57;1.83;;;36.10;52.10;;;;;;5014690;28;20639;-73
2022/08/01 07:45:10;;;;;;;3.80;2.20;;;35.10;51.30;;;;;;5032111;28;20448;-72
2022/08/01 07:47:35;;;;;;;2.20;2.10;;;35.80;52.30;;;;;;5026798;28;20460;-70
2022/08/01 07:50:03;;;;;;;2.00;1.90;;;37.20;49.10;;;;;;5035339;28;20436;-71
2022/08/01 07:52:30;;;;;;;3.40;2.90;;;39.70;45.30;;;;;;5026268;28;20183;-70
2022/08/01 07:54:56;;;;;;;2.87;2.20;;;40.50;43.40;;;;;;5031042;28;20801;-71
2022/08/01 07:57:22;;;;;;;2.23;2.10;;;39.20;42.60;;;;;;5033550;28;20471;-70
2022/08/01 07:59:47;;;;;;;2.20;2.10;;;37.50;45.40;;;;;;5031823;28;20433;-76
2022/08/01 08:02:13;;;;;;;3.27;2.57;;;35.80;47.00;;;;;;5017740;28;20819;-75
2022/08/01 08:04:39;;;;;;;2.20;2.10;;;34.50;49.60;;;;;;5031539;28;20182;-73
2022/08/01 08:07:04;;;;;;;2.20;2.00;;;34.30;50.50;;;;;;5028906;28;20222;-74
2022/08/01 08:09:30;;;;;;;3.50;3.20;;;35.20;49.70;;;;;;5028252;28;20276;-75
2022/08/01 08:11:55;;;;;;;2.73;2.40;;;35.80;48.50;;;;;;5029683;28;20240;-73
2022/08/01 08:14:22;;;;;;;3.10;2.90;;;37.40;46.80;;;;;;5029301;28;20228;-76
2022/08/01 08:16:48;;;;;;;2.53;2.30;;;37.90;45.10;;;;;;5032712;28;20293;-75
2022/08/01 08:19:14;;;;;;;2.60;2.40;;;37.60;44.30;;;;;;5027951;28;20536;-77
2022/08/01 08:21:40;;;;;;;4.13;2.60;;;36.80;45.50;;;;;;5022391;28;20206;-74
2022/08/01 08:24:23;;;;;;;3.00;2.73;;;36.00;46.80;;;;;;5032753;28;20723;-74
2022/08/01 08:26:53;;;;;;;2.37;2.17;;;35.40;48.00;;;;;;5026669;28;20466;-71
2022/08/01 08:29:19;;;;;;;2.63;2.43;;;34.40;49.20;;;;;;5027505;28;20575;-71
2022/08/01 08:31:45;;;;;;;3.63;2.40;;;33.40;51.80;;;;;;5029272;28;20487;-73
2022/08/01 08:34:12;;;;;;;2.63;2.20;;;34.40;51.30;;;;;;5019246;28;20473;-73
2022/08/01 08:36:37;;;;;;;2.63;2.43;;;34.70;50.00;;;;;;5036465;28;20556;-77
2022/08/01 08:39:03;;;;;;;1.97;1.87;;;34.80;50.00;;;;;;5038725;28;20471;-75
2022/08/01 08:41:33;;;;;;;2.77;2.57;;;35.10;49.00;;;;;;5031589;28;20182;-73
2022/08/01 08:44:01;;;;;;;3.40;3.13;;;34.40;49.80;;;;;;5032052;28;20491;-74
2022/08/01 08:46:27;;;;;;;4.40;4.00;;;34.50;50.20;;;;;;5031608;28;20444;-76
2022/08/01 08:48:54;;;;;;;3.97;3.57;;;34.30;50.20;;;;;;5025329;28;20462;-75
2022/08/01 08:51:22;;;;;;;3.07;2.87;;;34.00;51.80;;;;;;5031825;28;20445;-74
2022/08/01 08:53:48;;;;;;;3.20;2.83;;;33.60;51.10;;;;;;5030048;28;20582;-73
2022/08/01 08:56:15;;;;;;;3.43;3.07;;;33.60;51.50;;;;;;5037276;28;20493;-72
2022/08/01 08:58:44;;;;;;;4.33;3.00;;;33.50;52.40;;;;;;5043428;28;20464;-74
2022/08/01 09:01:12;;;;;;;2.33;2.23;;;33.20;52.40;;;;;;5035100;28;20445;-74
2022/08/01 09:03:38;;;;;;;4.00;2.70;;;33.30;52.70;;;;;;5031124;28;20475;-78
2022/08/01 09:06:04;;;;;;;2.80;2.30;;;32.60;55.10;;;;;;5025344;28;20501;-76
2022/08/01 09:08:29;;;;;;;2.93;2.73;;;33.50;53.40;;;;;;5027164;28;21444;-77
2022/08/01 09:10:55;;;;;;;3.50;3.00;;;33.60;52.70;;;;;;5017840;28;20190;-73
2022/08/01 09:13:21;;;;;;;5.60;5.20;;;33.60;52.50;;;;;;5033856;28;20213;-73
2022/08/01 09:15:50;;;;;;;5.60;4.07;;;33.20;53.30;;;;;;5038137;28;20196;-73
2022/08/01 09:18:34;;;;;;;4.50;3.63;;;32.70;53.40;;;;;;5031166;28;20704;-73
2022/08/01 09:21:06;;;;;;;4.10;3.80;;;31.50;55.00;;;;;;5030599;28;20450;-71
2022/08/01 09:23:38;;;;;;;4.27;3.97;;;29.90;57.90;;;;;;5031530;28;20487;-75
2022/08/01 09:26:04;;;;;;;4.20;3.90;;;30.20;58.80;;;;;;5041505;28;20444;-73
2022/08/01 09:28:30;;;;;;;4.90;4.50;;;29.90;59.50;;;;;;5030649;28;20827;-71
2022/08/01 09:30:57;;;;;;;4.93;4.53;;;30.00;60.80;;;;;;5017715;28;20541;-70
2022/08/01 09:33:23;;;;;;;5.93;5.33;;;30.90;58.00;;;;;;5028871;28;20441;-72
2022/08/01 09:35:57;;;;;;;6.70;6.17;;;30.60;58.50;;;;;;5026361;28;20439;-72
2022/08/01 09:38:26;;;;;;;6.23;5.57;;;30.10;59.00;;;;;;5026877;28;20216;-72
2022/08/01 09:40:57;;;;;;;7.07;6.47;;;30.80;59.10;;;;;;5027752;28;20440;-73
2022/08/01 09:43:25;;;;;;;7.30;6.60;;;31.80;57.30;;;;;;5031667;28;20448;-72
2022/08/01 09:45:51;;;;;;;7.40;6.80;;;33.90;54.80;;;;;;5037328;28;20521;-72
2022/08/01 09:48:17;;;;;;;8.40;7.80;;;34.40;52.20;;;;;;5023965;28;20552;-72
2022/08/01 09:50:47;;;;;;;7.53;6.83;;;34.60;51.00;;;;;;5026328;28;20463;-71
2022/08/01 09:53:14;;;;;;;5.47;4.97;;;35.00;51.30;;;;;;5031209;28;20444;-72
2022/08/01 09:55:41;;;;;;;6.10;5.70;;;34.60;50.90;;;;;;5027491;28;20553;-72
2022/08/01 09:58:07;;;;;;;6.20;5.80;;;33.10;52.20;;;;;;5022121;28;20518;-72
2022/08/01 10:00:34;;;;;;;6.47;5.80;;;32.10;54.70;;;;;;5027457;28;20443;-72
2022/08/01 10:03:18;;;;;;;6.40;5.80;;;31.80;55.50;;;;;;5029182;28;21027;-72
2022/08/01 10:05:44;;;;;;;6.67;6.17;;;30.90;57.00;;;;;;5026840;28;20446;-72
2022/08/01 10:08:10;;;;;;;5.70;5.23;;;31.10;57.90;;;;;;5035950;28;20985;-72
2022/08/01 10:10:36;;;;;;;6.03;5.20;;;32.50;57.30;;;;;;5021879;28;20814;-73
2022/08/01 10:13:02;;;;;;;6.20;5.70;;;32.50;55.30;;;;;;5035262;28;20447;-72
2022/08/01 10:15:30;;;;;;;6.50;6.00;;;32.10;55.00;;;;;;5034387;28;20474;-71
2022/08/01 10:17:57;;;;;;;6.30;5.80;;;31.60;56.30;;;;;;5032045;28;20465;-73
2022/08/01 10:20:31;;;;;;;6.17;5.67;;;31.50;56.30;;;;;;5041235;28;20999;-73
2022/08/01 10:23:04;;;;;;;5.33;4.83;;;31.70;56.50;;;;;;5030134;28;20546;-72
2022/08/01 10:25:36;;;;;;;6.30;5.70;;;31.40;56.20;;;;;;5035445;28;20455;-72
2022/08/01 10:28:16;;;;;;;6.47;5.97;;;31.20;56.90;;;;;;5028549;28;21053;-72
2022/08/01 10:30:43;;;;;;;4.93;4.60;;;30.80;57.20;;;;;;5025272;28;20933;-72
2022/08/01 10:33:10;;;;;;;4.67;4.27;;;30.80;57.50;;;;;;5029744;28;20463;-73
2022/08/01 10:35:36;;;;;;;4.97;4.67;;;30.80;58.10;;;;;;5034588;28;20519;-71
2022/08/01 10:38:03;;;;;;;4.63;4.33;;;30.40;58.20;;;;;;5028370;28;20970;-73
2022/08/01 10:40:29;;;;;;;4.53;4.13;;;29.90;59.50;;;;;;5033207;28;20445;-72
2022/08/01 10:42:56;;;;;;;5.07;4.67;;;30.00;60.30;;;;;;5026509;28;20444;-72
2022/08/01 10:45:23;;;;;;;8.33;4.30;;;29.80;59.80;;;;;;5027308;28;20463;-71
2022/08/01 10:48:09;;;;;;;3.30;3.00;;;29.70;59.80;;;;;;5016532;28;20996;-74
2022/08/01 10:50:43;;;;;;;5.10;4.30;;;29.40;60.80;;;;;;5025431;28;20442;-73
2022/08/01 10:53:21;;;;;;;4.30;4.00;;;29.10;61.30;;;;;;5030537;28;20502;-72
2022/08/01 10:56:00;;;;;;;4.20;3.90;;;28.90;62.60;;;;;;5024742;28;20444;-65
2022/08/01 10:58:37;;;;;;;4.10;3.80;;;28.70;63.10;;;;;;5021417;28;20552;-66
2022/08/01 11:01:14;;;;;;;4.27;3.97;;;28.60;64.40;;;;;;5028440;28;20580;-70
2022/08/01 11:03:42;;;;;;;4.73;4.33;;;28.40;64.80;;;;;;5026313;28;20444;-69
2022/08/01 11:06:20;;;;;;;6.27;4.57;;;28.30;64.70;;;;;;5021719;28;20449;-70
2022/08/01 11:08:52;;;;;;;7.63;4.90;;;28.40;65.20;;;;;;5027219;28;20476;-68
2022/08/01 11:11:19;;;;;;;5.10;4.70;;;28.60;64.70;;;;;;5025372;28;20517;-68
2022/08/01 11:14:09;;;;;;;4.57;4.27;;;28.70;63.50;;;;;;5029245;28;21017;-70
2022/08/01 11:16:36;;;;;;;5.13;4.73;;;29.70;61.90;;;;;;5023095;28;20514;-69
2022/08/01 11:19:08;;;;;;;5.90;4.43;;;31.20;58.70;;;;;;5032364;28;20441;-69
2022/08/01 11:22:00;;;;;;;4.90;4.50;;;31.80;56.90;;;;;;5026981;28;20809;-68
2022/08/01 11:24:47;;;;;;;6.97;6.50;;;31.50;56.50;;;;;;5031491;28;20953;-71
2022/08/01 11:27:19;;;;;;;4.77;4.30;;;30.90;57.90;;;;;;5030536;28;20464;-69
2022/08/01 11:30:07;;;;;;;4.70;4.30;;;30.50;57.90;;;;;;5030075;28;20530;-70
2022/08/01 11:32:33;;;;;;;4.70;4.40;;;30.10;58.60;;;;;;5032751;28;21009;-70
2022/08/01 11:34:59;;;;;;;4.23;3.93;;;30.00;59.20;;;;;;5032153;28;20586;-69
2022/08/01 11:37:26;;;;;;;4.33;4.00;;;30.10;59.50;;;;;;5030279;28;20270;-69
2022/08/01 11:40:21;;;;;;;4.60;4.30;;;30.80;57.60;;;;;;5028542;28;20193;-71
2022/08/01 11:42:48;;;;;;;4.20;3.87;;;30.50;57.30;;;;;;5025695;28;20591;-69
2022/08/01 11:45:14;;;;;;;4.03;3.70;;;30.40;58.00;;;;;;5024392;28;20444;-62
2022/08/01 11:47:50;;;;;;;3.50;3.27;;;30.00;58.60;;;;;;5032937;28;20469;-62
2022/08/01 11:50:35;;;;;;;3.50;3.30;;;29.60;59.60;;;;;;5029606;28;20443;-62
2022/08/01 11:53:05;;;;;;;4.30;3.90;;;29.30;60.00;;;;;;5031668;28;20525;-61
2022/08/01 11:55:31;;;;;;;4.37;4.07;;;29.10;60.60;;;;;;5027220;28;20438;-62
2022/08/01 11:58:16;;;;;;;3.83;3.60;;;28.90;61.50;;;;;;5033760;28;20507;-62
2022/08/01 12:00:51;;;;;;;3.73;3.20;;;29.10;60.60;;;;;;5025312;28;20516;-64
2022/08/01 12:03:16;;;;;;;6.37;3.60;;;29.40;59.70;;;;;;5028644;28;21048;-62
2022/08/01 12:05:44;;;;;;;4.00;3.27;;;29.50;60.10;;;;;;5027851;28;20445;-69
2022/08/01 12:08:09;;;;;;;3.37;3.17;;;29.50;60.20;;;;;;5027691;28;20624;-64
2022/08/01 12:10:36;;;;;;;3.90;3.60;;;29.30;61.40;;;;;;5032050;28;20497;-64
2022/08/01 12:13:04;;;;;;;4.00;3.70;;;29.20;61.80;;;;;;5029239;28;20220;-69
2022/08/01 12:15:39;;;;;;;3.47;3.27;;;29.00;60.80;;;;;;5031250;28;20880;-63
2022/08/01 12:18:07;;;;;;;4.30;4.00;;;28.90;60.70;;;;;;5030486;28;20511;-64
2022/08/01 12:20:35;;;;;;;4.63;3.60;;;29.20;61.50;;;;;;5027529;28;20614;-64
2022/08/01 12:23:03;;;;;;;3.50;3.30;;;29.20;60.40;;;;;;5030454;28;20645;-68
2022/08/01 12:25:29;;;;;;;4.00;3.70;;;29.10;60.70;;;;;;5032419;28;20450;-67
2022/08/01 12:27:58;;;;;;;3.80;3.50;;;28.70;60.80;;;;;;5030171;28;20576;-68
2022/08/01 12:30:24;;;;;;;4.00;3.70;;;28.70;61.90;;;;;;5022862;28;20443;-69
2022/08/01 12:32:52;;;;;;;3.43;3.10;;;28.70;61.20;;;;;;5031220;28;20519;-63
2022/08/01 12:35:23;;;;;;;3.43;3.13;;;28.70;60.70;;;;;;5018928;28;20469;-69
2022/08/01 12:37:54;;;;;;;5.73;3.53;;;28.70;61.10;;;;;;5027736;28;20470;-69
2022/08/01 12:40:21;;;;;;;4.40;4.00;;;28.80;61.90;;;;;;5033798;28;20522;-72
2022/08/01 12:42:49;;;;;;;4.30;4.00;;;28.50;62.90;;;;;;5031723;28;20452;-61
2022/08/01 12:45:17;;;;;;;6.23;3.23;;;28.50;63.90;;;;;;5023986;28;20464;-61
2022/08/01 12:47:43;;;;;;;3.87;3.60;;;28.50;63.20;;;;;;5029892;28;20472;-61
2022/08/01 12:50:31;;;;;;;2.83;2.63;;;28.80;62.80;;;;;;5029800;28;20465;-60
2022/08/01 12:52:58;;;;;;;5.23;3.53;;;28.90;63.20;;;;;;5024321;28;20449;-61
2022/08/01 12:55:25;;;;;;;3.70;3.40;;;28.90;63.00;;;;;;5031299;28;21049;-61